Time;durP1;ratioP1;P1;durP2;ratioP2;P2;SDS_P1;SDS_P2;PMS_P1;PMS_P2;Temp;Humidity;BMP_temperature;BMP_pressure;BME280_temperature;BME280_humidity;BME280_pressure;Samples;Min_cycle;Max_cycle;Signal;HPM_P1;HPM_P2
2021/01/21 00:01:51;;;;;;;4.10;0.52;;;10.10;79.00;;;;;;4990592;28;20016;-73
2021/01/21 00:04:17;;;;;;;2.88;0.50;;;10.00;79.10;;;;;;4967010;28;20039;-72
2021/01/21 00:06:42;;;;;;;5.00;1.02;;;10.00;79.20;;;;;;4969744;28;20160;-72
2021/01/21 00:09:08;;;;;;;2.67;0.50;;;10.00;79.20;;;;;;4979141;28;20389;-72
2021/01/21 00:11:33;;;;;;;1.85;0.40;;;10.00;79.40;;;;;;4970161;28;20039;-72
2021/01/21 00:13:59;;;;;;;1.77;0.50;;;10.00;79.40;;;;;;4995658;28;20483;-72
2021/01/21 00:16:24;;;;;;;4.47;0.40;;;9.90;79.30;;;;;;4971506;28;20548;-72
2021/01/21 00:18:50;;;;;;;2.63;0.50;;;9.90;79.40;;;;;;4967733;28;20029;-72
2021/01/21 00:21:15;;;;;;;3.63;0.40;;;9.90;79.40;;;;;;4967905;28;20028;-73
2021/01/21 00:23:41;;;;;;;3.40;0.40;;;10.00;79.50;;;;;;4966198;28;20023;-72
2021/01/21 00:26:06;;;;;;;2.33;0.38;;;9.90;79.50;;;;;;4967866;28;20063;-72
2021/01/21 00:28:32;;;;;;;1.83;0.40;;;9.80;79.60;;;;;;4969512;28;20373;-72
2021/01/21 00:30:57;;;;;;;2.90;0.45;;;9.80;79.80;;;;;;4980350;28;20040;-72
2021/01/21 00:33:23;;;;;;;2.70;0.40;;;9.80;79.90;;;;;;4967759;28;20054;-72
2021/01/21 00:35:48;;;;;;;2.63;0.47;;;9.90;79.80;;;;;;4967344;28;20436;-72
2021/01/21 00:38:14;;;;;;;1.15;0.68;;;9.90;79.70;;;;;;4977349;28;20027;-72
2021/01/21 00:40:39;;;;;;;3.78;0.40;;;9.90;79.70;;;;;;4967364;28;20035;-72
2021/01/21 00:43:05;;;;;;;4.22;0.40;;;9.90;79.70;;;;;;4972027;28;20151;-72
2021/01/21 00:45:30;;;;;;;2.03;0.40;;;9.90;79.60;;;;;;4961924;28;20031;-73
2021/01/21 00:47:56;;;;;;;1.23;0.40;;;10.00;79.60;;;;;;4956924;28;20072;-72
2021/01/21 00:50:22;;;;;;;3.63;0.40;;;10.00;79.30;;;;;;4972277;28;20388;-72
2021/01/21 00:52:48;;;;;;;2.35;0.32;;;10.10;79.20;;;;;;4955587;28;20031;-71
2021/01/21 00:55:13;;;;;;;4.35;0.40;;;10.20;79.00;;;;;;4954265;28;20027;-71
2021/01/21 00:57:39;;;;;;;2.65;0.60;;;10.20;78.70;;;;;;4949560;28;20474;-71
2021/01/21 01:00:10;;;;;;;2.33;0.43;;;10.30;78.40;;;;;;4954015;28;20024;-71
2021/01/21 01:02:35;;;;;;;1.40;0.40;;;10.30;78.10;;;;;;4950492;28;20032;-72
2021/01/21 01:05:01;;;;;;;2.70;0.40;;;10.30;78.00;;;;;;4957916;28;20031;-71
2021/01/21 01:07:27;;;;;;;3.88;0.40;;;10.20;77.90;;;;;;4952334;28;20038;-71
2021/01/21 01:09:53;;;;;;;4.88;0.60;;;10.20;78.00;;;;;;4973497;28;20111;-71
2021/01/21 01:12:18;;;;;;;2.30;0.60;;;10.20;78.10;;;;;;4960705;28;20031;-72
2021/01/21 01:14:44;;;;;;;2.92;0.40;;;10.10;78.10;;;;;;4953528;28;20034;-71
2021/01/21 01:17:10;;;;;;;0.98;0.35;;;10.10;78.10;;;;;;4953888;28;20543;-71
2021/01/21 01:19:37;;;;;;;1.60;0.40;;;10.20;77.90;;;;;;4954237;28;20031;-71
2021/01/21 01:22:02;;;;;;;2.85;0.47;;;10.20;77.80;;;;;;4952596;28;20038;-71
2021/01/21 01:24:28;;;;;;;3.88;0.30;;;10.20;78.00;;;;;;4959217;28;20934;-71
2021/01/21 01:26:53;;;;;;;2.83;0.40;;;10.10;78.00;;;;;;4952885;29;20125;-71
2021/01/21 01:29:19;;;;;;;3.42;0.47;;;10.20;77.80;;;;;;4953610;28;20041;-72
2021/01/21 01:31:45;;;;;;;1.98;0.40;;;10.20;77.70;;;;;;4953716;28;20024;-71
2021/01/21 01:34:10;;;;;;;2.40;0.40;;;10.30;77.50;;;;;;4952014;28;20512;-71
2021/01/21 01:36:36;;;;;;;3.72;0.40;;;10.30;77.30;;;;;;4953430;28;20023;-71
2021/01/21 01:39:02;;;;;;;3.95;0.47;;;10.40;77.10;;;;;;4952839;28;20054;-72
2021/01/21 01:41:29;;;;;;;2.40;0.40;;;10.40;76.90;;;;;;4953983;28;20027;-71
2021/01/21 01:43:54;;;;;;;1.25;0.38;;;10.50;76.60;;;;;;4953311;28;20031;-71
2021/01/21 01:46:20;;;;;;;1.80;0.30;;;10.50;76.10;;;;;;4960341;28;20080;-71
2021/01/21 01:48:46;;;;;;;2.28;0.40;;;10.60;76.00;;;;;;4966404;28;20027;-71
2021/01/21 01:51:12;;;;;;;3.78;0.45;;;10.60;75.80;;;;;;4955752;28;20035;-72
2021/01/21 01:53:37;;;;;;;3.65;0.30;;;10.70;75.30;;;;;;4956311;28;20518;-72
2021/01/21 01:56:04;;;;;;;2.42;0.50;;;10.70;75.10;;;;;;4952837;28;20069;-72
2021/01/21 01:58:32;;;;;;;2.63;0.73;;;10.70;75.00;;;;;;4958796;28;20162;-72
2021/01/21 02:00:59;;;;;;;5.13;0.40;;;10.80;74.70;;;;;;4956607;28;20023;-73
2021/01/21 02:03:25;;;;;;;6.95;0.30;;;10.90;74.50;;;;;;4956899;28;20035;-73
2021/01/21 02:05:52;;;;;;;3.58;0.50;;;10.90;74.20;;;;;;4953500;28;20027;-72
2021/01/21 02:08:22;;;;;;;2.95;0.40;;;10.90;73.70;;;;;;4951509;28;20031;-72
2021/01/21 02:10:47;;;;;;;1.83;0.30;;;11.00;73.50;;;;;;4972387;28;20396;-72
2021/01/21 02:13:28;;;;;;;2.80;0.38;;;11.00;74.50;;;;;;4959671;28;20119;-72
2021/01/21 02:15:58;;;;;;;4.22;0.30;;;10.90;75.60;;;;;;4954804;28;20055;-72
2021/01/21 02:18:40;;;;;;;3.65;0.60;;;10.90;76.50;;;;;;4956396;28;20109;-72
2021/01/21 02:21:56;;;;;;;1.65;0.30;;;10.80;76.60;;;;;;4940776;28;20502;-72
2021/01/21 02:24:54;;;;;;;3.42;0.40;;;10.80;76.60;;;;;;4951986;28;20781;-71
2021/01/21 02:27:20;;;;;;;1.50;0.28;;;10.70;76.60;;;;;;4950601;28;20059;-71
2021/01/21 02:29:47;;;;;;;4.22;0.40;;;10.80;76.60;;;;;;4953080;28;20030;-71
2021/01/21 02:32:18;;;;;;;1.00;0.40;;;10.80;76.60;;;;;;4952077;28;20034;-71
2021/01/21 02:35:15;;;;;;;3.33;0.40;;;10.80;77.00;;;;;;4952523;28;20081;-71
2021/01/21 02:37:51;;;;;;;3.15;0.35;;;10.90;76.90;;;;;;4967839;28;20156;-71
2021/01/21 02:40:17;;;;;;;1.45;0.52;;;10.90;76.50;;;;;;4952746;28;20385;-71
2021/01/21 02:42:45;;;;;;;2.33;0.30;;;11.00;76.20;;;;;;4953051;28;20038;-71
2021/01/21 02:45:12;;;;;;;4.10;0.32;;;11.00;76.30;;;;;;4956099;28;20111;-71
2021/01/21 02:47:38;;;;;;;1.42;0.30;;;11.00;76.30;;;;;;4952346;28;20031;-71
2021/01/21 02:50:04;;;;;;;3.13;0.50;;;11.10;76.50;;;;;;4955868;28;20042;-72
2021/01/21 02:52:42;;;;;;;2.90;0.25;;;11.20;76.30;;;;;;4961775;28;20055;-71
2021/01/21 02:55:13;;;;;;;1.45;0.30;;;11.20;75.90;;;;;;4951097;28;20111;-71
2021/01/21 02:58:00;;;;;;;0.60;0.20;;;11.30;75.60;;;;;;4956669;28;20028;-71
2021/01/21 03:00:26;;;;;;;1.00;0.30;;;11.50;75.50;;;;;;4952368;28;20097;-71
2021/01/21 03:02:57;;;;;;;4.20;0.25;;;11.50;74.90;;;;;;4954537;28;20036;-71
2021/01/21 03:05:24;;;;;;;0.93;0.22;;;11.70;74.40;;;;;;4960664;28;20058;-72
2021/01/21 03:07:50;;;;;;;1.85;0.20;;;11.80;74.00;;;;;;4961650;28;20027;-71
2021/01/21 03:10:20;;;;;;;2.47;0.20;;;11.90;74.00;;;;;;4955841;28;20484;-71
2021/01/21 03:12:57;;;;;;;4.10;0.28;;;12.00;73.50;;;;;;4953499;28;20110;-71
2021/01/21 03:15:23;;;;;;;2.13;0.55;;;12.00;73.10;;;;;;4958908;28;20461;-71
2021/01/21 03:17:49;;;;;;;1.90;0.20;;;12.10;73.20;;;;;;4961551;28;20031;-71
2021/01/21 03:20:15;;;;;;;1.70;0.40;;;12.10;73.20;;;;;;4951562;28;20381;-72
2021/01/21 03:22:41;;;;;;;3.05;0.30;;;12.10;73.30;;;;;;4951982;28;20027;-71
2021/01/21 03:25:07;;;;;;;1.95;0.30;;;12.20;73.00;;;;;;4951580;28;20066;-71
2021/01/21 03:27:33;;;;;;;1.10;0.30;;;12.20;73.00;;;;;;4952062;28;20031;-72
2021/01/21 03:29:58;;;;;;;1.27;0.22;;;12.20;73.70;;;;;;4950784;28;20036;-72
2021/01/21 03:32:23;;;;;;;4.45;0.25;;;12.20;74.10;;;;;;4954137;28;20034;-72
2021/01/21 03:34:49;;;;;;;1.25;0.28;;;12.10;74.00;;;;;;4955033;28;20424;-72
2021/01/21 03:37:14;;;;;;;1.10;0.20;;;12.10;73.60;;;;;;4952676;28;20153;-72
2021/01/21 03:39:40;;;;;;;1.33;0.20;;;12.10;73.40;;;;;;4954848;28;20366;-72
2021/01/21 03:42:06;;;;;;;1.38;0.40;;;12.10;73.20;;;;;;4955495;28;20027;-72
2021/01/21 03:44:31;;;;;;;3.33;0.95;;;12.20;73.10;;;;;;4954238;28;20435;-72
2021/01/21 03:46:57;;;;;;;2.17;0.30;;;12.20;73.00;;;;;;4951539;28;20093;-72
2021/01/21 03:49:22;;;;;;;2.38;0.20;;;12.20;73.30;;;;;;4945486;28;20111;-71
2021/01/21 03:51:48;;;;;;;2.30;0.20;;;12.20;73.60;;;;;;4953775;28;20024;-71
2021/01/21 03:54:13;;;;;;;1.08;0.15;;;12.20;74.40;;;;;;4945019;28;20157;-72
2021/01/21 03:56:39;;;;;;;1.35;0.20;;;12.10;74.50;;;;;;4954681;28;20030;-71
2021/01/21 03:59:04;;;;;;;3.50;0.30;;;12.10;74.90;;;;;;4950645;28;20035;-71
2021/01/21 04:01:30;;;;;;;1.60;0.20;;;12.10;76.20;;;;;;4945169;28;20358;-71
2021/01/21 04:03:56;;;;;;;2.60;0.20;;;11.90;77.50;;;;;;4951989;28;20110;-72
2021/01/21 04:06:21;;;;;;;0.75;0.10;;;11.80;78.70;;;;;;4952477;28;20039;-72
2021/01/21 04:08:47;;;;;;;2.13;0.30;;;11.70;79.40;;;;;;4950416;29;20385;-72
2021/01/21 04:11:12;;;;;;;2.03;0.25;;;11.60;80.20;;;;;;4955257;28;20035;-72
2021/01/21 04:13:38;;;;;;;5.57;0.43;;;11.50;81.00;;;;;;4946149;28;20091;-72
2021/01/21 04:16:04;;;;;;;1.75;0.30;;;11.40;82.00;;;;;;4955959;28;20035;-72
2021/01/21 04:18:29;;;;;;;11.00;0.80;;;11.40;83.20;;;;;;4951148;28;20035;-71
2021/01/21 04:20:55;;;;;;;3.92;0.80;;;10.70;76.70;;;;;;4952038;28;20032;-72
2021/01/21 04:23:20;;;;;;;2.28;0.17;;;9.10;78.70;;;;;;4954149;28;20434;-71
2021/01/21 04:25:46;;;;;;;4.53;0.20;;;8.00;82.90;;;;;;4955320;28;20039;-72
2021/01/21 04:28:11;;;;;;;3.20;0.10;;;7.40;85.80;;;;;;4974390;28;20023;-72
2021/01/21 04:30:40;;;;;;;3.78;0.10;;;7.10;87.30;;;;;;4954306;28;20165;-72
2021/01/21 04:33:06;;;;;;;2.28;0.20;;;7.00;88.40;;;;;;4954333;28;20109;-71
2021/01/21 04:35:31;;;;;;;2.25;0.30;;;7.00;88.90;;;;;;4954219;28;20054;-72
2021/01/21 04:37:58;;;;;;;3.67;0.20;;;7.00;89.10;;;;;;4952686;28;20027;-71
2021/01/21 04:40:25;;;;;;;3.80;0.28;;;6.90;89.30;;;;;;4967697;28;20034;-71
2021/01/21 04:42:51;;;;;;;2.05;0.13;;;7.00;89.00;;;;;;4961990;28;20073;-72
2021/01/21 04:45:17;;;;;;;3.20;0.20;;;7.00;88.60;;;;;;4953925;28;20503;-72
2021/01/21 04:47:42;;;;;;;2.83;0.20;;;7.00;88.20;;;;;;4959309;28;20109;-71
2021/01/21 04:50:09;;;;;;;3.10;0.10;;;7.10;87.20;;;;;;4955520;28;20062;-71
2021/01/21 04:52:38;;;;;;;5.43;0.40;;;7.20;87.50;;;;;;4957326;28;20031;-72
2021/01/21 04:55:11;;;;;;;1.98;0.17;;;7.10;87.30;;;;;;4952537;28;20040;-70
2021/01/21 04:57:52;;;;;;;2.25;0.17;;;7.00;86.80;;;;;;4946625;28;20054;-72
2021/01/21 05:00:18;;;;;;;3.45;0.10;;;7.00;86.80;;;;;;4946275;28;20027;-72
2021/01/21 05:02:45;;;;;;;2.28;0.10;;;6.90;87.10;;;;;;4952358;28;20073;-71
2021/01/21 05:05:11;;;;;;;4.45;0.30;;;6.90;87.80;;;;;;4953358;28;20570;-71
2021/01/21 05:07:38;;;;;;;2.78;0.22;;;6.90;87.80;;;;;;4964748;28;20374;-71
2021/01/21 05:10:06;;;;;;;3.38;0.25;;;7.00;87.70;;;;;;4954009;28;20508;-71
2021/01/21 05:12:32;;;;;;;2.47;0.17;;;7.00;87.40;;;;;;4954295;28;20405;-71
2021/01/21 05:14:57;;;;;;;2.22;0.20;;;7.00;86.70;;;;;;4953395;28;20038;-71
2021/01/21 05:17:23;;;;;;;2.05;0.10;;;7.00;86.10;;;;;;5005493;28;20038;-72
2021/01/21 05:19:52;;;;;;;1.60;0.08;;;7.10;85.80;;;;;;4958525;28;20030;-71
2021/01/21 05:22:18;;;;;;;0.68;0.05;;;7.10;85.70;;;;;;4948282;28;20024;-73
2021/01/21 05:24:45;;;;;;;3.58;0.13;;;7.20;85.60;;;;;;4952046;28;20035;-72
2021/01/21 05:27:12;;;;;;;3.45;0.20;;;7.20;85.60;;;;;;4953907;28;20046;-72
2021/01/21 05:29:37;;;;;;;2.60;0.20;;;7.10;85.20;;;;;;4957936;28;20051;-71
2021/01/21 05:32:06;;;;;;;2.83;0.20;;;7.20;85.20;;;;;;4952500;28;20078;-71
2021/01/21 05:34:33;;;;;;;3.92;0.30;;;7.20;85.10;;;;;;4952968;28;20054;-72
2021/01/21 05:36:58;;;;;;;1.67;0.10;;;7.10;84.70;;;;;;4952687;28;20035;-71
2021/01/21 05:39:24;;;;;;;5.03;0.30;;;7.20;84.90;;;;;;4969598;28;20076;-71
2021/01/21 05:41:52;;;;;;;4.18;0.20;;;7.20;84.80;;;;;;4952068;28;20102;-71
2021/01/21 05:44:17;;;;;;;2.88;0.50;;;7.20;84.70;;;;;;4953254;28;20085;-72
2021/01/21 05:46:43;;;;;;;2.85;0.20;;;7.20;84.60;;;;;;4953355;28;20027;-71
2021/01/21 05:49:11;;;;;;;4.32;0.20;;;7.20;84.60;;;;;;4956881;28;20508;-72
2021/01/21 05:51:37;;;;;;;3.10;0.28;;;7.20;84.80;;;;;;4963385;28;20450;-72
2021/01/21 05:54:02;;;;;;;7.40;0.45;;;7.20;85.40;;;;;;4965205;28;20140;-72
2021/01/21 05:56:28;;;;;;;4.70;0.52;;;7.20;84.80;;;;;;4947977;28;20023;-72
2021/01/21 05:58:54;;;;;;;5.93;0.20;;;7.30;84.60;;;;;;4948851;28;20039;-72
2021/01/21 06:01:21;;;;;;;5.07;0.63;;;7.30;84.40;;;;;;4959060;28;20034;-71
2021/01/21 06:03:47;;;;;;;3.35;0.20;;;7.30;84.00;;;;;;4960891;28;20080;-72
2021/01/21 06:06:13;;;;;;;4.03;0.20;;;7.30;84.20;;;;;;4963375;28;20038;-72
2021/01/21 06:08:40;;;;;;;3.95;0.35;;;7.30;84.40;;;;;;4968727;28;20027;-73
2021/01/21 06:11:07;;;;;;;4.90;0.30;;;7.20;85.20;;;;;;4944633;28;20027;-71
2021/01/21 06:13:43;;;;;;;2.40;0.30;;;7.10;84.60;;;;;;4945708;28;20043;-71
2021/01/21 06:16:10;;;;;;;7.05;0.40;;;7.10;84.40;;;;;;4947051;28;20045;-73
2021/01/21 06:18:36;;;;;;;6.82;0.40;;;7.00;84.30;;;;;;4946913;28;20026;-73
2021/01/21 06:21:02;;;;;;;7.88;0.82;;;7.00;84.60;;;;;;4950507;28;20023;-70
2021/01/21 06:23:31;;;;;;;8.30;0.30;;;7.00;83.80;;;;;;4951731;28;20039;-70
2021/01/21 06:25:59;;;;;;;4.80;0.40;;;7.00;83.10;;;;;;4947387;28;20083;-71
2021/01/21 06:28:29;;;;;;;5.85;0.50;;;7.00;82.20;;;;;;4939763;28;20033;-71
2021/01/21 06:30:59;;;;;;;1.92;0.40;;;7.00;80.60;;;;;;4951436;28;20392;-72
2021/01/21 06:33:39;;;;;;;5.80;0.38;;;7.00;80.00;;;;;;4954922;28;20051;-72
2021/01/21 06:36:08;;;;;;;2.28;0.20;;;6.90;79.10;;;;;;4951659;29;20118;-72
2021/01/21 06:38:38;;;;;;;11.35;0.70;;;7.00;79.50;;;;;;4956164;28;20560;-72
2021/01/21 06:41:07;;;;;;;8.68;0.38;;;6.90;79.90;;;;;;4954973;28;20035;-71
2021/01/21 06:43:37;;;;;;;4.07;0.40;;;6.90;78.50;;;;;;4951817;28;20042;-72
2021/01/21 06:46:03;;;;;;;6.40;0.30;;;6.90;77.60;;;;;;4943871;28;20647;-72
2021/01/21 06:48:29;;;;;;;6.75;0.30;;;6.80;77.40;;;;;;4943185;28;20481;-72
2021/01/21 06:50:56;;;;;;;6.28;0.70;;;6.80;77.60;;;;;;4947130;28;20070;-72
2021/01/21 06:53:22;;;;;;;5.22;1.48;;;6.70;77.30;;;;;;4948502;28;20031;-72
2021/01/21 06:55:51;;;;;;;7.38;0.40;;;6.70;77.50;;;;;;4944934;28;20051;-72
2021/01/21 06:58:53;;;;;;;3.97;0.52;;;6.70;77.20;;;;;;4951291;28;20031;-70
2021/01/21 07:01:31;;;;;;;5.68;0.40;;;6.70;76.50;;;;;;4979874;28;20355;-73
2021/01/21 07:04:21;;;;;;;6.05;0.38;;;6.60;76.40;;;;;;4951980;28;20389;-73
2021/01/21 07:06:49;;;;;;;7.93;0.50;;;6.50;76.50;;;;;;4964708;28;20400;-71
2021/01/21 07:09:16;;;;;;;4.88;0.50;;;6.50;76.80;;;;;;5022653;28;20037;-71
2021/01/21 07:11:43;;;;;;;7.32;0.95;;;6.40;77.10;;;;;;4960234;28;20173;-71
2021/01/21 07:14:10;;;;;;;8.75;0.77;;;6.30;77.10;;;;;;4964605;28;20039;-71
2021/01/21 07:16:36;;;;;;;3.97;0.43;;;6.30;77.20;;;;;;4951157;28;20105;-72
2021/01/21 07:19:03;;;;;;;6.07;0.60;;;6.30;77.10;;;;;;4951622;28;20035;-72
2021/01/21 07:21:32;;;;;;;8.80;0.60;;;6.30;77.30;;;;;;4988359;28;20027;-71
2021/01/21 07:24:00;;;;;;;4.75;0.70;;;6.20;77.40;;;;;;4951663;28;20113;-72
2021/01/21 07:26:41;;;;;;;4.22;0.40;;;6.20;77.60;;;;;;4957310;28;20065;-71
2021/01/21 07:29:15;;;;;;;3.95;0.40;;;6.10;78.00;;;;;;4970506;28;20027;-73
2021/01/21 07:31:56;;;;;;;2.17;0.30;;;6.10;78.10;;;;;;4958571;28;20035;-74
2021/01/21 07:34:39;;;;;;;7.50;0.40;;;6.10;78.10;;;;;;4969489;28;20073;-71
2021/01/21 07:37:19;;;;;;;7.07;0.60;;;6.10;78.20;;;;;;4967312;28;20790;-71
2021/01/21 07:40:09;;;;;;;7.35;0.60;;;6.10;78.20;;;;;;4961447;28;20023;-71
2021/01/21 07:42:37;;;;;;;9.10;0.70;;;6.10;78.30;;;;;;4951513;28;20035;-72
2021/01/21 07:45:04;;;;;;;6.95;0.50;;;6.00;78.30;;;;;;4949452;28;20481;-70
2021/01/21 07:47:36;;;;;;;6.82;0.85;;;6.00;78.40;;;;;;4949160;28;20038;-72
2021/01/21 07:50:22;;;;;;;8.98;0.93;;;6.00;78.60;;;;;;4942779;28;20038;-71
2021/01/21 07:52:49;;;;;;;7.45;1.10;;;6.00;78.70;;;;;;4957951;28;20050;-73
2021/01/21 07:55:23;;;;;;;4.40;0.40;;;6.00;78.70;;;;;;4955453;28;20035;-72
2021/01/21 07:57:49;;;;;;;5.05;0.70;;;6.00;78.80;;;;;;4954191;28;20362;-72
2021/01/21 08:00:15;;;;;;;4.25;0.38;;;6.00;78.90;;;;;;4956203;28;20064;-72
2021/01/21 08:02:49;;;;;;;7.65;0.55;;;6.00;78.90;;;;;;4949754;28;20031;-71
2021/01/21 08:05:17;;;;;;;10.90;0.88;;;6.00;78.90;;;;;;4949954;28;20034;-72
2021/01/21 08:07:53;;;;;;;10.20;0.70;;;6.00;79.10;;;;;;4957779;28;20164;-71
2021/01/21 08:10:21;;;;;;;10.00;0.88;;;6.10;79.30;;;;;;4974696;28;20412;-72
2021/01/21 08:12:50;;;;;;;12.68;1.27;;;6.10;79.40;;;;;;4956383;28;20046;-72
2021/01/21 08:15:17;;;;;;;4.75;0.60;;;6.10;79.50;;;;;;4952857;28;20153;-71
2021/01/21 08:17:44;;;;;;;4.85;0.40;;;6.10;79.60;;;;;;4954519;28;20027;-72
2021/01/21 08:20:11;;;;;;;7.82;0.60;;;6.10;79.70;;;;;;4955078;28;20077;-71
2021/01/21 08:23:00;;;;;;;6.60;0.57;;;6.20;79.90;;;;;;4956617;28;20031;-71
2021/01/21 08:25:42;;;;;;;7.40;0.52;;;6.20;80.00;;;;;;4952654;28;20027;-71
2021/01/21 08:28:08;;;;;;;7.35;1.10;;;6.20;80.00;;;;;;4950965;28;20058;-71
2021/01/21 08:30:35;;;;;;;8.73;0.60;;;6.20;80.20;;;;;;4952935;28;20393;-71
2021/01/21 08:33:15;;;;;;;5.40;0.55;;;6.20;80.30;;;;;;4950483;28;20027;-71
2021/01/21 08:35:46;;;;;;;9.77;0.60;;;6.30;80.60;;;;;;4949372;28;20031;-71
2021/01/21 08:38:14;;;;;;;4.82;0.40;;;6.30;80.60;;;;;;4943230;28;20428;-71
2021/01/21 08:40:41;;;;;;;6.75;1.20;;;6.30;80.90;;;;;;4956008;28;20030;-71
2021/01/21 08:43:07;;;;;;;4.28;0.30;;;6.30;81.30;;;;;;4955786;28;20031;-71
2021/01/21 08:45:33;;;;;;;12.25;1.23;;;6.30;81.60;;;;;;4950268;28;20389;-71
2021/01/21 08:47:59;;;;;;;6.30;0.40;;;6.30;82.20;;;;;;4956210;28;20042;-71
2021/01/21 08:50:34;;;;;;;8.70;0.70;;;6.30;82.60;;;;;;4951942;28;20023;-72
2021/01/21 08:53:10;;;;;;;7.78;0.70;;;6.30;82.90;;;;;;4950823;28;20354;-71
2021/01/21 08:55:36;;;;;;;14.73;0.70;;;6.40;83.30;;;;;;4947129;28;20031;-71
2021/01/21 08:58:03;;;;;;;13.85;0.40;;;6.40;83.40;;;;;;4950426;28;20023;-71
2021/01/21 09:00:29;;;;;;;11.23;1.63;;;6.40;83.80;;;;;;4951008;28;20032;-71
2021/01/21 09:02:54;;;;;;;10.10;1.60;;;6.40;84.10;;;;;;4950730;28;20552;-71
2021/01/21 09:05:21;;;;;;;9.90;0.85;;;6.50;84.40;;;;;;4955824;28;20122;-71
2021/01/21 09:07:50;;;;;;;6.90;0.40;;;6.50;84.50;;;;;;4953059;28;20024;-71
2021/01/21 09:10:16;;;;;;;8.55;0.50;;;6.60;84.70;;;;;;4946103;28;20040;-71
2021/01/21 09:12:42;;;;;;;10.82;0.57;;;6.60;84.80;;;;;;4956749;28;20085;-71
2021/01/21 09:15:10;;;;;;;6.97;0.65;;;6.70;84.80;;;;;;4955767;28;20031;-71
2021/01/21 09:17:37;;;;;;;7.47;0.55;;;6.70;84.80;;;;;;4952924;28;20085;-72
2021/01/21 09:20:30;;;;;;;10.25;0.70;;;6.80;84.80;;;;;;4952665;28;20019;-71
2021/01/21 09:22:56;;;;;;;8.57;1.13;;;6.90;84.80;;;;;;4944501;28;20372;-71
2021/01/21 09:25:24;;;;;;;8.77;0.60;;;6.90;84.70;;;;;;4961324;28;20043;-70
2021/01/21 09:27:55;;;;;;;6.18;0.32;;;6.90;84.80;;;;;;4954239;28;20397;-70
2021/01/21 09:30:21;;;;;;;8.23;0.70;;;6.90;84.60;;;;;;4966230;28;20057;-71
2021/01/21 09:32:47;;;;;;;4.78;0.43;;;6.90;84.70;;;;;;4955623;28;20027;-70
2021/01/21 09:35:18;;;;;;;7.93;0.95;;;7.00;84.80;;;;;;4959647;28;20039;-71
2021/01/21 09:37:48;;;;;;;4.63;0.50;;;7.10;84.70;;;;;;4942069;28;20026;-71
2021/01/21 09:40:15;;;;;;;7.97;0.93;;;7.10;84.50;;;;;;4952222;28;20046;-71
2021/01/21 09:42:41;;;;;;;7.95;0.73;;;7.20;84.20;;;;;;4953258;28;20071;-71
2021/01/21 09:45:08;;;;;;;9.57;0.63;;;7.30;84.00;;;;;;4945760;28;20440;-71
2021/01/21 09:47:34;;;;;;;6.88;0.50;;;7.40;83.70;;;;;;4967447;28;20028;-71
2021/01/21 09:50:00;;;;;;;12.20;0.60;;;7.40;83.40;;;;;;4957601;28;20421;-71
2021/01/21 09:52:25;;;;;;;10.43;1.10;;;7.40;83.20;;;;;;4957539;28;20070;-72
2021/01/21 09:54:52;;;;;;;8.93;0.40;;;7.50;83.40;;;;;;4947207;28;20035;-71
2021/01/21 09:57:17;;;;;;;11.07;0.63;;;7.50;83.10;;;;;;4986798;28;20031;-72
2021/01/21 09:59:43;;;;;;;15.05;0.85;;;7.60;83.20;;;;;;4949520;28;20076;-73
2021/01/21 10:02:09;;;;;;;11.43;1.05;;;7.70;82.80;;;;;;4955420;28;20034;-72
2021/01/21 10:04:40;;;;;;;8.38;0.55;;;7.80;82.50;;;;;;4951243;28;20047;-72
2021/01/21 10:07:08;;;;;;;8.70;0.40;;;7.80;82.10;;;;;;4938367;28;20046;-72
2021/01/21 10:09:35;;;;;;;9.02;0.60;;;7.80;82.20;;;;;;4952201;28;20057;-71
2021/01/21 10:12:02;;;;;;;6.68;0.65;;;7.90;82.20;;;;;;4952605;28;20032;-71
2021/01/21 10:14:28;;;;;;;7.53;0.70;;;8.00;82.00;;;;;;4952137;28;20031;-72
2021/01/21 10:16:54;;;;;;;6.07;0.60;;;8.10;81.60;;;;;;4973314;28;20027;-71
2021/01/21 10:19:20;;;;;;;9.18;0.50;;;8.10;81.50;;;;;;4950955;28;20098;-71
2021/01/21 10:21:45;;;;;;;6.30;0.60;;;8.10;81.20;;;;;;4952394;28;20102;-71
2021/01/21 10:24:11;;;;;;;11.75;0.60;;;8.10;81.20;;;;;;4948845;28;20122;-72
2021/01/21 10:26:37;;;;;;;8.75;0.50;;;8.10;81.10;;;;;;4968732;28;20437;-71
2021/01/21 10:29:03;;;;;;;6.30;0.45;;;8.10;81.20;;;;;;4997943;28;20185;-70
2021/01/21 10:31:28;;;;;;;7.63;0.40;;;8.00;81.20;;;;;;4958853;28;20062;-72
2021/01/21 10:33:54;;;;;;;5.20;0.43;;;8.00;81.40;;;;;;4956805;28;20065;-71
2021/01/21 10:36:19;;;;;;;5.70;0.40;;;8.00;81.30;;;;;;4951839;28;20028;-72
2021/01/21 10:38:45;;;;;;;3.83;0.30;;;8.00;81.00;;;;;;4948980;28;20031;-72
2021/01/21 10:41:10;;;;;;;6.80;0.50;;;8.00;80.90;;;;;;4953277;28;20027;-72
2021/01/21 10:43:37;;;;;;;5.95;0.43;;;8.00;81.00;;;;;;4943652;28;20074;-71
2021/01/21 10:46:03;;;;;;;7.38;0.50;;;7.90;80.90;;;;;;4962980;28;20497;-72
2021/01/21 10:48:29;;;;;;;6.45;0.50;;;7.90;81.00;;;;;;4948484;28;20082;-71
2021/01/21 10:50:54;;;;;;;4.80;0.47;;;7.90;81.00;;;;;;4949989;28;20758;-71
2021/01/21 10:53:20;;;;;;;5.82;0.47;;;8.00;80.90;;;;;;4946639;28;20408;-71
2021/01/21 10:55:46;;;;;;;5.40;0.50;;;8.00;80.70;;;;;;4949891;28;20050;-71
2021/01/21 10:58:13;;;;;;;5.95;0.30;;;8.10;80.70;;;;;;4951449;28;20110;-72
2021/01/21 11:00:40;;;;;;;3.22;0.30;;;8.10;80.50;;;;;;4950227;28;20019;-72
2021/01/21 11:03:05;;;;;;;9.77;0.50;;;8.20;80.40;;;;;;4949806;28;20401;-72
2021/01/21 11:05:31;;;;;;;7.55;0.40;;;8.20;80.30;;;;;;4944828;28;20028;-72
2021/01/21 11:07:56;;;;;;;9.00;0.47;;;8.30;80.20;;;;;;4951519;28;20038;-72
2021/01/21 11:10:22;;;;;;;4.00;0.40;;;8.30;80.00;;;;;;4962231;28;20463;-72
2021/01/21 11:12:48;;;;;;;4.93;0.43;;;8.40;79.70;;;;;;4950107;28;20023;-72
2021/01/21 11:15:15;;;;;;;5.25;0.50;;;8.40;79.40;;;;;;4949024;28;20398;-72
2021/01/21 11:17:41;;;;;;;4.25;0.70;;;8.50;79.60;;;;;;4949454;28;20039;-72
2021/01/21 11:20:07;;;;;;;4.72;0.60;;;8.50;79.20;;;;;;4943285;28;20543;-72
2021/01/21 11:22:33;;;;;;;3.22;0.40;;;8.60;79.20;;;;;;4953673;28;20405;-72
2021/01/21 11:24:58;;;;;;;6.63;0.47;;;8.60;79.20;;;;;;4948303;28;20039;-72
2021/01/21 11:27:24;;;;;;;6.60;0.45;;;8.60;79.00;;;;;;4949080;28;20024;-73
2021/01/21 11:29:49;;;;;;;6.80;0.50;;;8.60;78.40;;;;;;4948283;28;20080;-72
2021/01/21 11:32:15;;;;;;;4.65;0.38;;;8.70;78.70;;;;;;4943130;28;20031;-72
2021/01/21 11:34:40;;;;;;;5.40;0.50;;;8.70;78.40;;;;;;4950646;28;20082;-72
2021/01/21 11:37:06;;;;;;;3.88;0.60;;;8.70;78.20;;;;;;4946930;28;20020;-72
2021/01/21 11:39:31;;;;;;;1.98;0.20;;;8.60;78.20;;;;;;4951300;28;20039;-72
2021/01/21 11:41:57;;;;;;;3.75;0.60;;;8.70;78.20;;;;;;4952020;28;20145;-72
2021/01/21 11:44:22;;;;;;;5.30;0.50;;;8.70;78.30;;;;;;4948541;28;20116;-72
2021/01/21 11:46:48;;;;;;;5.95;0.40;;;8.70;78.40;;;;;;4949018;28;20054;-72
2021/01/21 11:49:13;;;;;;;3.78;0.50;;;8.60;78.30;;;;;;4951692;28;20397;-72
2021/01/21 11:51:39;;;;;;;6.15;0.57;;;8.70;78.40;;;;;;4949727;28;20126;-72
2021/01/21 11:54:05;;;;;;;3.85;0.30;;;8.70;78.50;;;;;;4948103;28;20433;-72
2021/01/21 11:56:30;;;;;;;2.60;0.30;;;8.70;78.60;;;;;;4950544;28;20085;-72
2021/01/21 11:58:56;;;;;;;8.25;1.05;;;8.80;77.80;;;;;;4949365;28;20062;-72
2021/01/21 12:01:21;;;;;;;9.73;0.50;;;8.90;77.60;;;;;;4948241;28;20136;-72
2021/01/21 12:03:47;;;;;;;7.85;0.43;;;8.90;77.50;;;;;;4948445;28;20043;-72
2021/01/21 12:06:12;;;;;;;8.20;0.50;;;8.90;77.10;;;;;;4943787;28;20039;-72
2021/01/21 12:08:38;;;;;;;6.88;0.65;;;8.90;77.20;;;;;;4952470;28;20566;-72
2021/01/21 12:11:04;;;;;;;8.88;0.50;;;9.00;77.20;;;;;;4941187;28;20046;-72
2021/01/21 12:13:29;;;;;;;4.20;0.63;;;9.10;76.90;;;;;;4951775;28;20371;-71
2021/01/21 12:15:55;;;;;;;8.20;0.57;;;9.20;76.80;;;;;;4948550;28;20039;-71
2021/01/21 12:18:21;;;;;;;5.85;0.80;;;9.20;76.40;;;;;;4948843;28;20492;-71
2021/01/21 12:20:46;;;;;;;4.90;0.85;;;9.20;76.30;;;;;;4951298;28;20035;-71
2021/01/21 12:23:14;;;;;;;2.88;0.85;;;9.20;76.10;;;;;;4942703;28;20024;-73
2021/01/21 12:25:39;;;;;;;5.45;0.45;;;9.20;75.90;;;;;;4959913;28;20431;-71
2021/01/21 12:28:05;;;;;;;8.35;0.60;;;9.20;76.00;;;;;;4936706;28;20037;-71
2021/01/21 12:30:31;;;;;;;6.07;0.35;;;9.10;75.70;;;;;;4952363;28;20094;-71
2021/01/21 12:32:56;;;;;;;5.00;0.45;;;9.10;75.60;;;;;;4948354;28;20033;-71
2021/01/21 12:35:23;;;;;;;5.30;0.45;;;9.00;75.60;;;;;;4944131;28;20416;-72
2021/01/21 12:37:48;;;;;;;4.40;0.47;;;9.00;75.40;;;;;;4982032;28;20026;-72
2021/01/21 12:40:14;;;;;;;5.88;0.40;;;8.80;75.40;;;;;;4968579;28;20041;-72
2021/01/21 12:42:40;;;;;;;6.03;0.45;;;8.80;76.00;;;;;;4954174;28;20397;-71
2021/01/21 12:45:06;;;;;;;3.67;0.50;;;8.80;76.00;;;;;;4964403;28;20035;-73
2021/01/21 12:47:31;;;;;;;5.13;0.50;;;8.80;76.10;;;;;;4951636;28;20034;-72
2021/01/21 12:49:57;;;;;;;3.35;0.40;;;8.80;76.60;;;;;;4952661;28;20028;-72
2021/01/21 12:52:23;;;;;;;6.70;0.63;;;8.90;76.90;;;;;;4949098;28;20402;-72
2021/01/21 12:54:48;;;;;;;2.90;0.40;;;8.90;76.60;;;;;;4990764;28;20036;-72
2021/01/21 12:57:17;;;;;;;4.07;0.22;;;9.00;75.90;;;;;;4993581;28;20097;-72